sensor_id;sensor_type;location;lat;lon;timestamp;P1;durP1;ratioP1;P2;durP2;ratioP2
53281;SDS011;39167;52.794;6.892;2022-11-18T00:01:13;24.38;;;16.33;;
53281;SDS011;39167;52.794;6.892;2022-11-18T00:03:41;25.85;;;17.58;;
53281;SDS011;39167;52.794;6.892;2022-11-18T00:06:09;28.90;;;18.83;;
53281;SDS011;39167;52.794;6.892;2022-11-18T00:08:36;26.90;;;17.80;;
53281;SDS011;39167;52.794;6.892;2022-11-18T00:11:09;26.60;;;17.25;;
53281;SDS011;39167;52.794;6.892;2022-11-18T00:13:37;28.65;;;18.15;;
53281;SDS011;39167;52.794;6.892;2022-11-18T00:16:22;28.58;;;18.80;;
53281;SDS011;39167;52.794;6.892;2022-11-18T00:18:48;27.50;;;17.75;;
53281;SDS011;39167;52.794;6.892;2022-11-18T00:21:14;27.52;;;18.30;;
53281;SDS011;39167;52.794;6.892;2022-11-18T00:23:39;26.92;;;17.88;;
53281;SDS011;39167;52.794;6.892;2022-11-18T00:26:09;27.88;;;18.30;;
53281;SDS011;39167;52.794;6.892;2022-11-18T00:28:36;30.65;;;19.15;;
53281;SDS011;39167;52.794;6.892;2022-11-18T00:31:03;28.63;;;18.85;;
53281;SDS011;39167;52.794;6.892;2022-11-18T00:33:31;29.58;;;18.67;;
53281;SDS011;39167;52.794;6.892;2022-11-18T00:35:56;32.08;;;19.50;;
53281;SDS011;39167;52.794;6.892;2022-11-18T00:38:23;32.85;;;19.65;;
53281;SDS011;39167;52.794;6.892;2022-11-18T00:40:57;29.80;;;19.20;;
53281;SDS011;39167;52.794;6.892;2022-11-18T00:43:23;31.40;;;20.25;;
53281;SDS011;39167;52.794;6.892;2022-11-18T00:45:49;30.23;;;19.27;;
53281;SDS011;39167;52.794;6.892;2022-11-18T00:48:15;33.67;;;19.35;;
53281;SDS011;39167;52.794;6.892;2022-11-18T00:50:45;32.50;;;20.27;;
53281;SDS011;39167;52.794;6.892;2022-11-18T00:53:12;31.90;;;20.38;;
53281;SDS011;39167;52.794;6.892;2022-11-18T00:55:38;34.67;;;20.25;;
53281;SDS011;39167;52.794;6.892;2022-11-18T00:58:03;30.27;;;19.33;;
53281;SDS011;39167;52.794;6.892;2022-11-18T01:00:31;35.03;;;20.52;;
53281;SDS011;39167;52.794;6.892;2022-11-18T01:02:56;32.28;;;19.80;;
53281;SDS011;39167;52.794;6.892;2022-11-18T01:05:22;31.38;;;19.85;;
53281;SDS011;39167;52.794;6.892;2022-11-18T01:07:47;30.17;;;19.83;;
53281;SDS011;39167;52.794;6.892;2022-11-18T01:10:13;33.28;;;20.15;;
53281;SDS011;39167;52.794;6.892;2022-11-18T01:12:39;32.33;;;19.73;;
53281;SDS011;39167;52.794;6.892;2022-11-18T01:15:23;33.97;;;20.88;;
53281;SDS011;39167;52.794;6.892;2022-11-18T01:17:49;28.63;;;19.83;;
53281;SDS011;39167;52.794;6.892;2022-11-18T01:20:15;33.17;;;20.55;;
53281;SDS011;39167;52.794;6.892;2022-11-18T01:22:40;30.63;;;19.65;;
53281;SDS011;39167;52.794;6.892;2022-11-18T01:25:06;33.33;;;20.33;;
53281;SDS011;39167;52.794;6.892;2022-11-18T01:27:32;30.08;;;19.95;;
53281;SDS011;39167;52.794;6.892;2022-11-18T01:29:58;32.15;;;19.70;;
53281;SDS011;39167;52.794;6.892;2022-11-18T01:32:23;35.60;;;22.27;;
53281;SDS011;39167;52.794;6.892;2022-11-18T01:34:49;31.33;;;20.02;;
53281;SDS011;39167;52.794;6.892;2022-11-18T01:37:15;32.08;;;20.60;;
53281;SDS011;39167;52.794;6.892;2022-11-18T01:39:40;33.80;;;21.33;;
53281;SDS011;39167;52.794;6.892;2022-11-18T01:42:10;33.85;;;20.65;;
53281;SDS011;39167;52.794;6.892;2022-11-18T01:47:25;34.05;;;19.95;;
53281;SDS011;39167;52.794;6.892;2022-11-18T01:49:55;29.30;;;19.40;;
53281;SDS011;39167;52.794;6.892;2022-11-18T01:52:23;36.03;;;20.77;;
53281;SDS011;39167;52.794;6.892;2022-11-18T01:54:49;38.40;;;22.50;;
53281;SDS011;39167;52.794;6.892;2022-11-18T01:57:21;34.03;;;20.08;;
53281;SDS011;39167;52.794;6.892;2022-11-18T01:59:52;30.13;;;19.65;;
53281;SDS011;39167;52.794;6.892;2022-11-18T02:02:20;30.92;;;19.70;;
53281;SDS011;39167;52.794;6.892;2022-11-18T02:04:47;34.15;;;20.10;;
53281;SDS011;39167;52.794;6.892;2022-11-18T02:07:15;34.92;;;20.50;;
53281;SDS011;39167;52.794;6.892;2022-11-18T02:09:41;32.90;;;19.67;;
53281;SDS011;39167;52.794;6.892;2022-11-18T02:12:07;35.22;;;20.08;;
53281;SDS011;39167;52.794;6.892;2022-11-18T02:14:35;37.42;;;21.20;;
53281;SDS011;39167;52.794;6.892;2022-11-18T02:25:07;33.80;;;20.52;;
53281;SDS011;39167;52.794;6.892;2022-11-18T02:30:43;32.42;;;19.83;;
53281;SDS011;39167;52.794;6.892;2022-11-18T02:36:03;35.70;;;20.70;;
53281;SDS011;39167;52.794;6.892;2022-11-18T02:38:40;33.47;;;20.23;;
53281;SDS011;39167;52.794;6.892;2022-11-18T02:41:16;32.38;;;19.45;;
53281;SDS011;39167;52.794;6.892;2022-11-18T02:43:53;33.80;;;19.88;;
53281;SDS011;39167;52.794;6.892;2022-11-18T02:46:24;36.38;;;21.80;;
53281;SDS011;39167;52.794;6.892;2022-11-18T02:48:54;32.92;;;19.88;;
53281;SDS011;39167;52.794;6.892;2022-11-18T02:51:24;35.75;;;20.92;;
53281;SDS011;39167;52.794;6.892;2022-11-18T02:53:52;32.22;;;19.67;;
53281;SDS011;39167;52.794;6.892;2022-11-18T02:56:21;34.78;;;19.85;;
53281;SDS011;39167;52.794;6.892;2022-11-18T02:58:49;32.30;;;20.45;;
53281;SDS011;39167;52.794;6.892;2022-11-18T03:01:17;35.63;;;21.50;;
53281;SDS011;39167;52.794;6.892;2022-11-18T03:03:51;35.55;;;19.88;;
53281;SDS011;39167;52.794;6.892;2022-11-18T03:09:26;34.47;;;20.15;;
53281;SDS011;39167;52.794;6.892;2022-11-18T03:14:39;32.45;;;20.55;;
53281;SDS011;39167;52.794;6.892;2022-11-18T03:17:36;30.48;;;19.00;;
53281;SDS011;39167;52.794;6.892;2022-11-18T03:20:49;35.10;;;20.85;;
53281;SDS011;39167;52.794;6.892;2022-11-18T03:23:13;35.58;;;20.35;;
53281;SDS011;39167;52.794;6.892;2022-11-18T03:25:52;39.72;;;20.77;;
53281;SDS011;39167;52.794;6.892;2022-11-18T03:28:48;29.08;;;19.20;;
53281;SDS011;39167;52.794;6.892;2022-11-18T03:34:01;32.28;;;20.05;;
53281;SDS011;39167;52.794;6.892;2022-11-18T03:36:49;28.27;;;18.67;;
53281;SDS011;39167;52.794;6.892;2022-11-18T03:39:18;29.58;;;19.02;;
53281;SDS011;39167;52.794;6.892;2022-11-18T03:41:48;28.20;;;17.95;;
53281;SDS011;39167;52.794;6.892;2022-11-18T03:44:36;30.15;;;19.05;;
53281;SDS011;39167;52.794;6.892;2022-11-18T03:47:07;31.75;;;20.08;;
53281;SDS011;39167;52.794;6.892;2022-11-18T03:49:48;29.58;;;19.00;;
53281;SDS011;39167;52.794;6.892;2022-11-18T03:52:19;30.10;;;19.07;;
53281;SDS011;39167;52.794;6.892;2022-11-18T03:54:49;31.52;;;19.17;;
53281;SDS011;39167;52.794;6.892;2022-11-18T04:00:14;35.60;;;20.48;;
53281;SDS011;39167;52.794;6.892;2022-11-18T04:02:41;31.75;;;20.08;;
53281;SDS011;39167;52.794;6.892;2022-11-18T04:05:08;34.28;;;20.27;;
53281;SDS011;39167;52.794;6.892;2022-11-18T04:10:28;28.50;;;18.25;;
53281;SDS011;39167;52.794;6.892;2022-11-18T04:13:14;29.55;;;17.67;;
53281;SDS011;39167;52.794;6.892;2022-11-18T04:15:52;30.30;;;19.27;;
53281;SDS011;39167;52.794;6.892;2022-11-18T04:18:18;33.67;;;18.88;;
53281;SDS011;39167;52.794;6.892;2022-11-18T04:20:44;29.77;;;18.77;;
53281;SDS011;39167;52.794;6.892;2022-11-18T04:23:10;31.25;;;18.73;;
53281;SDS011;39167;52.794;6.892;2022-11-18T04:25:35;31.45;;;19.38;;
53281;SDS011;39167;52.794;6.892;2022-11-18T04:28:01;32.33;;;17.75;;
53281;SDS011;39167;52.794;6.892;2022-11-18T04:30:27;32.67;;;19.27;;
53281;SDS011;39167;52.794;6.892;2022-11-18T04:32:52;30.80;;;17.40;;
53281;SDS011;39167;52.794;6.892;2022-11-18T04:35:18;29.92;;;18.38;;
53281;SDS011;39167;52.794;6.892;2022-11-18T04:37:44;33.20;;;18.17;;
53281;SDS011;39167;52.794;6.892;2022-11-18T04:40:10;36.30;;;19.63;;
53281;SDS011;39167;52.794;6.892;2022-11-18T04:42:36;30.17;;;18.50;;
53281;SDS011;39167;52.794;6.892;2022-11-18T04:45:02;29.73;;;18.17;;
53281;SDS011;39167;52.794;6.892;2022-11-18T04:47:28;29.33;;;17.95;;
53281;SDS011;39167;52.794;6.892;2022-11-18T04:49:53;34.80;;;18.83;;
53281;SDS011;39167;52.794;6.892;2022-11-18T04:52:19;33.97;;;19.10;;
53281;SDS011;39167;52.794;6.892;2022-11-18T04:54:45;35.85;;;19.13;;
53281;SDS011;39167;52.794;6.892;2022-11-18T04:57:11;31.90;;;18.35;;
53281;SDS011;39167;52.794;6.892;2022-11-18T04:59:37;28.80;;;17.90;;
53281;SDS011;39167;52.794;6.892;2022-11-18T05:02:03;32.83;;;19.15;;
53281;SDS011;39167;52.794;6.892;2022-11-18T05:04:30;30.55;;;17.90;;
53281;SDS011;39167;52.794;6.892;2022-11-18T05:06:58;31.30;;;18.92;;
53281;SDS011;39167;52.794;6.892;2022-11-18T05:09:25;33.28;;;18.65;;
53281;SDS011;39167;52.794;6.892;2022-11-18T05:11:51;35.72;;;19.10;;
53281;SDS011;39167;52.794;6.892;2022-11-18T05:14:35;33.90;;;17.85;;
53281;SDS011;39167;52.794;6.892;2022-11-18T05:17:01;30.25;;;18.17;;
53281;SDS011;39167;52.794;6.892;2022-11-18T05:19:29;33.53;;;18.15;;
53281;SDS011;39167;52.794;6.892;2022-11-18T05:21:54;34.50;;;19.45;;
53281;SDS011;39167;52.794;6.892;2022-11-18T05:24:20;33.08;;;19.35;;
53281;SDS011;39167;52.794;6.892;2022-11-18T05:26:48;34.30;;;18.10;;
53281;SDS011;39167;52.794;6.892;2022-11-18T05:29:16;33.60;;;18.33;;
53281;SDS011;39167;52.794;6.892;2022-11-18T05:31:46;35.70;;;17.35;;
53281;SDS011;39167;52.794;6.892;2022-11-18T05:34:12;32.28;;;18.67;;
53281;SDS011;39167;52.794;6.892;2022-11-18T05:36:39;35.90;;;19.35;;
53281;SDS011;39167;52.794;6.892;2022-11-18T05:39:04;32.72;;;19.63;;
53281;SDS011;39167;52.794;6.892;2022-11-18T05:41:30;33.20;;;18.58;;
53281;SDS011;39167;52.794;6.892;2022-11-18T05:44:14;33.80;;;18.50;;
53281;SDS011;39167;52.794;6.892;2022-11-18T05:46:40;34.42;;;19.13;;
53281;SDS011;39167;52.794;6.892;2022-11-18T05:49:06;33.60;;;18.58;;
53281;SDS011;39167;52.794;6.892;2022-11-18T05:51:32;34.45;;;19.95;;
53281;SDS011;39167;52.794;6.892;2022-11-18T05:53:58;33.85;;;18.80;;
53281;SDS011;39167;52.794;6.892;2022-11-18T05:56:27;31.73;;;18.88;;
53281;SDS011;39167;52.794;6.892;2022-11-18T05:58:57;34.58;;;19.42;;
53281;SDS011;39167;52.794;6.892;2022-11-18T06:01:32;36.88;;;19.48;;
53281;SDS011;39167;52.794;6.892;2022-11-18T06:04:08;32.38;;;18.80;;
53281;SDS011;39167;52.794;6.892;2022-11-18T06:06:38;38.70;;;21.02;;
53281;SDS011;39167;52.794;6.892;2022-11-18T06:09:05;38.63;;;18.73;;
53281;SDS011;39167;52.794;6.892;2022-11-18T06:11:39;38.10;;;18.60;;
53281;SDS011;39167;52.794;6.892;2022-11-18T06:14:14;34.47;;;18.80;;
53281;SDS011;39167;52.794;6.892;2022-11-18T06:16:47;41.55;;;19.52;;
53281;SDS011;39167;52.794;6.892;2022-11-18T06:19:17;34.15;;;18.38;;
53281;SDS011;39167;52.794;6.892;2022-11-18T06:21:43;35.28;;;18.48;;
53281;SDS011;39167;52.794;6.892;2022-11-18T06:24:10;36.53;;;18.48;;
53281;SDS011;39167;52.794;6.892;2022-11-18T06:26:37;33.90;;;18.60;;
53281;SDS011;39167;52.794;6.892;2022-11-18T06:29:04;34.90;;;19.13;;
53281;SDS011;39167;52.794;6.892;2022-11-18T06:31:31;31.50;;;17.77;;
53281;SDS011;39167;52.794;6.892;2022-11-18T06:33:56;32.88;;;17.42;;
53281;SDS011;39167;52.794;6.892;2022-11-18T06:36:22;32.83;;;18.33;;
53281;SDS011;39167;52.794;6.892;2022-11-18T06:38:48;40.88;;;18.85;;
53281;SDS011;39167;52.794;6.892;2022-11-18T06:41:13;34.30;;;18.05;;
53281;SDS011;39167;52.794;6.892;2022-11-18T06:43:39;36.33;;;18.13;;
53281;SDS011;39167;52.794;6.892;2022-11-18T06:46:09;34.08;;;17.08;;
53281;SDS011;39167;52.794;6.892;2022-11-18T06:48:59;32.92;;;16.58;;
53281;SDS011;39167;52.794;6.892;2022-11-18T06:51:25;33.17;;;17.30;;
53281;SDS011;39167;52.794;6.892;2022-11-18T06:53:51;26.88;;;16.02;;
53281;SDS011;39167;52.794;6.892;2022-11-18T06:56:18;32.13;;;16.55;;
53281;SDS011;39167;52.794;6.892;2022-11-18T06:58:45;28.85;;;14.88;;
53281;SDS011;39167;52.794;6.892;2022-11-18T07:01:15;28.02;;;14.60;;
53281;SDS011;39167;52.794;6.892;2022-11-18T07:03:43;26.50;;;13.80;;
53281;SDS011;39167;52.794;6.892;2022-11-18T07:06:10;22.45;;;12.68;;
53281;SDS011;39167;52.794;6.892;2022-11-18T07:08:38;25.20;;;12.77;;
53281;SDS011;39167;52.794;6.892;2022-11-18T07:11:07;25.08;;;13.15;;
53281;SDS011;39167;52.794;6.892;2022-11-18T07:13:35;24.15;;;12.80;;
53281;SDS011;39167;52.794;6.892;2022-11-18T07:16:02;25.35;;;12.68;;
53281;SDS011;39167;52.794;6.892;2022-11-18T07:18:32;24.10;;;13.02;;
53281;SDS011;39167;52.794;6.892;2022-11-18T07:21:00;29.13;;;13.63;;
53281;SDS011;39167;52.794;6.892;2022-11-18T07:23:27;27.00;;;12.90;;
53281;SDS011;39167;52.794;6.892;2022-11-18T07:25:54;24.38;;;12.32;;
53281;SDS011;39167;52.794;6.892;2022-11-18T07:28:20;24.58;;;12.85;;
53281;SDS011;39167;52.794;6.892;2022-11-18T07:30:46;21.98;;;12.10;;
53281;SDS011;39167;52.794;6.892;2022-11-18T07:33:12;26.85;;;13.80;;
53281;SDS011;39167;52.794;6.892;2022-11-18T07:35:37;26.60;;;13.70;;
53281;SDS011;39167;52.794;6.892;2022-11-18T07:38:03;24.70;;;13.57;;
53281;SDS011;39167;52.794;6.892;2022-11-18T07:40:29;30.45;;;14.13;;
53281;SDS011;39167;52.794;6.892;2022-11-18T07:42:55;26.85;;;13.75;;
53281;SDS011;39167;52.794;6.892;2022-11-18T07:45:20;29.55;;;15.38;;
53281;SDS011;39167;52.794;6.892;2022-11-18T07:47:46;26.63;;;14.68;;
53281;SDS011;39167;52.794;6.892;2022-11-18T07:50:11;29.08;;;14.70;;
53281;SDS011;39167;52.794;6.892;2022-11-18T07:52:37;28.40;;;13.43;;
53281;SDS011;39167;52.794;6.892;2022-11-18T07:55:03;23.73;;;12.65;;
53281;SDS011;39167;52.794;6.892;2022-11-18T07:57:29;28.30;;;13.18;;
53281;SDS011;39167;52.794;6.892;2022-11-18T07:59:55;23.63;;;13.65;;
53281;SDS011;39167;52.794;6.892;2022-11-18T08:02:20;27.17;;;13.55;;
53281;SDS011;39167;52.794;6.892;2022-11-18T08:04:46;26.70;;;12.23;;
53281;SDS011;39167;52.794;6.892;2022-11-18T08:07:12;23.85;;;12.30;;
53281;SDS011;39167;52.794;6.892;2022-11-18T08:09:38;22.52;;;11.77;;
53281;SDS011;39167;52.794;6.892;2022-11-18T08:12:03;26.65;;;13.50;;
53281;SDS011;39167;52.794;6.892;2022-11-18T08:14:29;23.65;;;13.38;;
53281;SDS011;39167;52.794;6.892;2022-11-18T08:16:55;26.25;;;13.10;;
53281;SDS011;39167;52.794;6.892;2022-11-18T08:19:22;22.63;;;12.35;;
53281;SDS011;39167;52.794;6.892;2022-11-18T08:21:48;25.85;;;13.02;;
53281;SDS011;39167;52.794;6.892;2022-11-18T08:24:14;25.60;;;14.18;;
53281;SDS011;39167;52.794;6.892;2022-11-18T08:26:40;27.30;;;12.85;;
53281;SDS011;39167;52.794;6.892;2022-11-18T08:29:05;25.50;;;13.77;;
53281;SDS011;39167;52.794;6.892;2022-11-18T08:31:31;25.60;;;13.27;;
53281;SDS011;39167;52.794;6.892;2022-11-18T08:33:57;26.13;;;13.18;;
53281;SDS011;39167;52.794;6.892;2022-11-18T08:36:26;24.90;;;12.75;;
53281;SDS011;39167;52.794;6.892;2022-11-18T08:38:56;24.17;;;12.65;;
53281;SDS011;39167;52.794;6.892;2022-11-18T08:41:26;22.75;;;13.00;;
53281;SDS011;39167;52.794;6.892;2022-11-18T08:43:55;22.58;;;12.85;;
53281;SDS011;39167;52.794;6.892;2022-11-18T08:46:21;23.80;;;13.50;;
53281;SDS011;39167;52.794;6.892;2022-11-18T08:48:47;27.10;;;14.18;;
53281;SDS011;39167;52.794;6.892;2022-11-18T08:51:13;21.48;;;13.50;;
53281;SDS011;39167;52.794;6.892;2022-11-18T08:53:39;23.65;;;13.35;;
53281;SDS011;39167;52.794;6.892;2022-11-18T08:56:06;24.40;;;12.35;;
53281;SDS011;39167;52.794;6.892;2022-11-18T08:58:36;26.33;;;13.80;;
53281;SDS011;39167;52.794;6.892;2022-11-18T09:01:05;26.05;;;13.90;;
53281;SDS011;39167;52.794;6.892;2022-11-18T09:03:32;22.17;;;13.40;;
53281;SDS011;39167;52.794;6.892;2022-11-18T09:06:08;22.13;;;13.02;;
53281;SDS011;39167;52.794;6.892;2022-11-18T09:08:35;22.55;;;13.07;;
53281;SDS011;39167;52.794;6.892;2022-11-18T09:11:08;23.17;;;12.27;;
53281;SDS011;39167;52.794;6.892;2022-11-18T09:13:36;21.48;;;12.40;;
53281;SDS011;39167;52.794;6.892;2022-11-18T09:16:02;20.27;;;11.20;;
53281;SDS011;39167;52.794;6.892;2022-11-18T09:18:29;20.75;;;11.30;;
53281;SDS011;39167;52.794;6.892;2022-11-18T09:20:55;22.40;;;12.10;;
53281;SDS011;39167;52.794;6.892;2022-11-18T09:23:22;19.25;;;10.93;;
53281;SDS011;39167;52.794;6.892;2022-11-18T09:25:48;21.83;;;12.18;;
53281;SDS011;39167;52.794;6.892;2022-11-18T09:28:20;23.95;;;14.02;;
53281;SDS011;39167;52.794;6.892;2022-11-18T09:30:46;23.88;;;13.50;;
53281;SDS011;39167;52.794;6.892;2022-11-18T09:33:12;24.30;;;13.85;;
53281;SDS011;39167;52.794;6.892;2022-11-18T09:35:40;26.23;;;14.00;;
53281;SDS011;39167;52.794;6.892;2022-11-18T09:38:07;23.73;;;13.93;;
53281;SDS011;39167;52.794;6.892;2022-11-18T09:40:33;21.67;;;12.52;;
53281;SDS011;39167;52.794;6.892;2022-11-18T09:43:16;21.63;;;13.65;;
53281;SDS011;39167;52.794;6.892;2022-11-18T09:45:51;21.58;;;12.65;;
53281;SDS011;39167;52.794;6.892;2022-11-18T09:48:28;22.83;;;12.52;;
53281;SDS011;39167;52.794;6.892;2022-11-18T09:51:12;22.85;;;12.93;;
53281;SDS011;39167;52.794;6.892;2022-11-18T09:53:41;20.60;;;12.25;;
53281;SDS011;39167;52.794;6.892;2022-11-18T09:56:13;21.20;;;12.57;;
53281;SDS011;39167;52.794;6.892;2022-11-18T09:58:40;22.77;;;12.90;;
53281;SDS011;39167;52.794;6.892;2022-11-18T10:01:13;25.52;;;13.38;;
53281;SDS011;39167;52.794;6.892;2022-11-18T10:03:43;22.73;;;12.30;;
53281;SDS011;39167;52.794;6.892;2022-11-18T10:06:23;21.67;;;12.73;;
53281;SDS011;39167;52.794;6.892;2022-11-18T10:09:12;25.08;;;13.48;;
53281;SDS011;39167;52.794;6.892;2022-11-18T10:12:07;21.98;;;11.63;;
53281;SDS011;39167;52.794;6.892;2022-11-18T10:17:53;23.55;;;12.30;;
53281;SDS011;39167;52.794;6.892;2022-11-18T10:23:34;22.02;;;12.80;;
53281;SDS011;39167;52.794;6.892;2022-11-18T10:26:08;21.77;;;11.95;;
53281;SDS011;39167;52.794;6.892;2022-11-18T10:28:34;21.83;;;12.57;;
53281;SDS011;39167;52.794;6.892;2022-11-18T10:31:07;19.65;;;11.80;;
53281;SDS011;39167;52.794;6.892;2022-11-18T10:33:35;21.23;;;12.73;;
53281;SDS011;39167;52.794;6.892;2022-11-18T10:36:09;21.70;;;12.25;;
53281;SDS011;39167;52.794;6.892;2022-11-18T10:38:43;21.42;;;13.02;;
53281;SDS011;39167;52.794;6.892;2022-11-18T10:41:11;22.25;;;12.65;;
53281;SDS011;39167;52.794;6.892;2022-11-18T10:43:49;22.42;;;12.23;;
53281;SDS011;39167;52.794;6.892;2022-11-18T10:46:24;21.60;;;12.48;;
53281;SDS011;39167;52.794;6.892;2022-11-18T10:51:48;17.70;;;11.30;;
53281;SDS011;39167;52.794;6.892;2022-11-18T10:54:33;18.88;;;11.35;;
53281;SDS011;39167;52.794;6.892;2022-11-18T10:59:34;21.08;;;11.73;;
53281;SDS011;39167;52.794;6.892;2022-11-18T11:05:20;20.05;;;12.00;;
53281;SDS011;39167;52.794;6.892;2022-11-18T11:08:04;18.02;;;10.75;;
53281;SDS011;39167;52.794;6.892;2022-11-18T11:10:41;19.88;;;11.30;;
53281;SDS011;39167;52.794;6.892;2022-11-18T11:13:22;19.35;;;10.82;;
53281;SDS011;39167;52.794;6.892;2022-11-18T11:15:52;17.10;;;10.73;;
53281;SDS011;39167;52.794;6.892;2022-11-18T11:18:24;18.38;;;10.20;;
53281;SDS011;39167;52.794;6.892;2022-11-18T11:21:14;19.27;;;10.65;;
53281;SDS011;39167;52.794;6.892;2022-11-18T11:23:42;17.50;;;10.05;;
53281;SDS011;39167;52.794;6.892;2022-11-18T11:26:13;21.20;;;11.40;;
53281;SDS011;39167;52.794;6.892;2022-11-18T11:29:04;19.45;;;11.57;;
53281;SDS011;39167;52.794;6.892;2022-11-18T11:31:54;20.15;;;11.07;;
53281;SDS011;39167;52.794;6.892;2022-11-18T11:39:54;20.30;;;11.00;;
53281;SDS011;39167;52.794;6.892;2022-11-18T11:56:51;23.25;;;12.27;;
53281;SDS011;39167;52.794;6.892;2022-11-18T12:02:00;24.85;;;12.25;;
53281;SDS011;39167;52.794;6.892;2022-11-18T12:05:07;20.48;;;11.68;;
53281;SDS011;39167;52.794;6.892;2022-11-18T12:07:55;21.88;;;12.38;;
53281;SDS011;39167;52.794;6.892;2022-11-18T12:18:44;28.13;;;14.05;;
53281;SDS011;39167;52.794;6.892;2022-11-18T12:21:50;27.58;;;14.50;;
53281;SDS011;39167;52.794;6.892;2022-11-18T12:26:55;27.40;;;14.32;;
53281;SDS011;39167;52.794;6.892;2022-11-18T12:29:23;23.73;;;13.40;;
53281;SDS011;39167;52.794;6.892;2022-11-18T12:31:55;26.92;;;13.70;;
53281;SDS011;39167;52.794;6.892;2022-11-18T12:42:32;24.83;;;14.05;;
53281;SDS011;39167;52.794;6.892;2022-11-18T12:48:04;26.63;;;14.30;;
53281;SDS011;39167;52.794;6.892;2022-11-18T12:50:50;25.20;;;13.20;;
53281;SDS011;39167;52.794;6.892;2022-11-18T12:56:11;27.98;;;14.40;;
53281;SDS011;39167;52.794;6.892;2022-11-18T12:58:43;28.25;;;14.48;;
53281;SDS011;39167;52.794;6.892;2022-11-18T13:01:11;25.20;;;13.65;;
53281;SDS011;39167;52.794;6.892;2022-11-18T13:03:38;24.80;;;13.27;;
53281;SDS011;39167;52.794;6.892;2022-11-18T13:06:26;25.73;;;13.32;;
53281;SDS011;39167;52.794;6.892;2022-11-18T13:08:57;25.13;;;13.52;;
53281;SDS011;39167;52.794;6.892;2022-11-18T13:11:30;23.70;;;13.65;;
53281;SDS011;39167;52.794;6.892;2022-11-18T13:14:13;23.65;;;12.70;;
53281;SDS011;39167;52.794;6.892;2022-11-18T13:17:01;24.67;;;12.68;;
53281;SDS011;39167;52.794;6.892;2022-11-18T13:19:55;23.45;;;12.43;;
53281;SDS011;39167;52.794;6.892;2022-11-18T13:22:22;24.02;;;12.73;;
53281;SDS011;39167;52.794;6.892;2022-11-18T13:25:22;21.33;;;11.75;;
53281;SDS011;39167;52.794;6.892;2022-11-18T13:30:32;31.50;;;11.65;;
53281;SDS011;39167;52.794;6.892;2022-11-18T13:33:02;21.83;;;11.18;;
53281;SDS011;39167;52.794;6.892;2022-11-18T13:35:27;22.77;;;10.80;;
53281;SDS011;39167;52.794;6.892;2022-11-18T13:38:00;19.13;;;10.25;;
53281;SDS011;39167;52.794;6.892;2022-11-18T13:40:30;18.08;;;10.20;;
53281;SDS011;39167;52.794;6.892;2022-11-18T13:43:02;18.13;;;10.18;;
53281;SDS011;39167;52.794;6.892;2022-11-18T13:45:28;19.13;;;10.25;;
53281;SDS011;39167;52.794;6.892;2022-11-18T13:47:58;17.75;;;9.82;;
53281;SDS011;39167;52.794;6.892;2022-11-18T13:53:22;21.67;;;10.73;;
53281;SDS011;39167;52.794;6.892;2022-11-18T14:03:27;18.83;;;9.68;;
53281;SDS011;39167;52.794;6.892;2022-11-18T14:05:57;19.65;;;10.48;;
53281;SDS011;39167;52.794;6.892;2022-11-18T14:08:33;18.33;;;10.70;;
53281;SDS011;39167;52.794;6.892;2022-11-18T14:11:00;22.50;;;12.15;;
53281;SDS011;39167;52.794;6.892;2022-11-18T14:13:47;21.42;;;12.90;;
53281;SDS011;39167;52.794;6.892;2022-11-18T14:18:45;19.70;;;10.82;;
53281;SDS011;39167;52.794;6.892;2022-11-18T14:21:12;19.92;;;11.38;;
53281;SDS011;39167;52.794;6.892;2022-11-18T14:23:49;20.85;;;10.70;;
53281;SDS011;39167;52.794;6.892;2022-11-18T14:26:18;21.33;;;12.23;;
53281;SDS011;39167;52.794;6.892;2022-11-18T14:28:54;21.35;;;11.43;;
53281;SDS011;39167;52.794;6.892;2022-11-18T14:31:25;22.57;;;11.57;;
53281;SDS011;39167;52.794;6.892;2022-11-18T14:36:43;23.83;;;12.40;;
53281;SDS011;39167;52.794;6.892;2022-11-18T14:39:21;23.85;;;12.90;;
53281;SDS011;39167;52.794;6.892;2022-11-18T14:44:18;23.63;;;12.43;;
53281;SDS011;39167;52.794;6.892;2022-11-18T14:46:46;23.48;;;14.30;;
53281;SDS011;39167;52.794;6.892;2022-11-18T14:49:16;23.20;;;13.50;;
53281;SDS011;39167;52.794;6.892;2022-11-18T14:51:43;23.23;;;13.77;;
53281;SDS011;39167;52.794;6.892;2022-11-18T14:54:13;27.90;;;13.88;;
53281;SDS011;39167;52.794;6.892;2022-11-18T14:56:40;23.95;;;13.27;;
53281;SDS011;39167;52.794;6.892;2022-11-18T14:59:09;25.73;;;13.68;;
53281;SDS011;39167;52.794;6.892;2022-11-18T15:01:38;22.45;;;12.15;;
53281;SDS011;39167;52.794;6.892;2022-11-18T15:04:05;20.20;;;11.68;;
53281;SDS011;39167;52.794;6.892;2022-11-18T15:06:31;20.70;;;12.25;;
53281;SDS011;39167;52.794;6.892;2022-11-18T15:08:56;19.80;;;11.25;;
53281;SDS011;39167;52.794;6.892;2022-11-18T15:11:22;20.15;;;11.05;;
53281;SDS011;39167;52.794;6.892;2022-11-18T15:13:48;18.52;;;10.60;;
53281;SDS011;39167;52.794;6.892;2022-11-18T15:18:46;17.65;;;10.50;;
53281;SDS011;39167;52.794;6.892;2022-11-18T15:21:13;17.35;;;10.13;;
53281;SDS011;39167;52.794;6.892;2022-11-18T15:23:40;17.98;;;9.18;;
53281;SDS011;39167;52.794;6.892;2022-11-18T15:26:19;15.50;;;9.30;;
53281;SDS011;39167;52.794;6.892;2022-11-18T15:28:53;18.45;;;10.45;;
53281;SDS011;39167;52.794;6.892;2022-11-18T15:31:21;19.48;;;10.07;;
53281;SDS011;39167;52.794;6.892;2022-11-18T15:33:47;17.35;;;9.23;;
53281;SDS011;39167;52.794;6.892;2022-11-18T15:36:16;19.35;;;10.07;;
53281;SDS011;39167;52.794;6.892;2022-11-18T15:38:49;15.07;;;9.55;;
53281;SDS011;39167;52.794;6.892;2022-11-18T15:41:17;16.52;;;9.70;;
53281;SDS011;39167;52.794;6.892;2022-11-18T15:43:45;18.02;;;10.02;;
53281;SDS011;39167;52.794;6.892;2022-11-18T15:46:13;17.15;;;10.20;;
53281;SDS011;39167;52.794;6.892;2022-11-18T15:48:40;20.10;;;10.52;;
53281;SDS011;39167;52.794;6.892;2022-11-18T15:51:06;16.73;;;10.10;;
53281;SDS011;39167;52.794;6.892;2022-11-18T15:53:32;17.58;;;10.10;;
53281;SDS011;39167;52.794;6.892;2022-11-18T15:58:43;16.05;;;9.65;;
53281;SDS011;39167;52.794;6.892;2022-11-18T16:01:09;15.95;;;9.50;;
53281;SDS011;39167;52.794;6.892;2022-11-18T16:03:34;16.23;;;9.32;;
53281;SDS011;39167;52.794;6.892;2022-11-18T16:06:00;19.92;;;10.52;;
53281;SDS011;39167;52.794;6.892;2022-11-18T16:08:26;17.05;;;9.63;;
53281;SDS011;39167;52.794;6.892;2022-11-18T16:10:55;19.30;;;10.50;;
53281;SDS011;39167;52.794;6.892;2022-11-18T16:13:41;16.55;;;9.57;;
53281;SDS011;39167;52.794;6.892;2022-11-18T16:16:15;18.67;;;10.57;;
53281;SDS011;39167;52.794;6.892;2022-11-18T16:18:42;19.60;;;10.73;;
53281;SDS011;39167;52.794;6.892;2022-11-18T16:21:08;16.35;;;9.18;;
53281;SDS011;39167;52.794;6.892;2022-11-18T16:23:34;19.38;;;10.77;;
53281;SDS011;39167;52.794;6.892;2022-11-18T16:25:59;17.90;;;11.07;;
53281;SDS011;39167;52.794;6.892;2022-11-18T16:28:25;18.38;;;10.32;;
53281;SDS011;39167;52.794;6.892;2022-11-18T16:30:51;18.98;;;10.88;;
53281;SDS011;39167;52.794;6.892;2022-11-18T16:33:35;18.98;;;10.40;;
53281;SDS011;39167;52.794;6.892;2022-11-18T16:36:01;21.23;;;11.55;;
53281;SDS011;39167;52.794;6.892;2022-11-18T16:38:27;19.33;;;10.55;;